EIN34G EIDW-LSZH
Flight info
| Callsign | EIN34G |
|---|---|
| Flight time | 1h 46m |
| Altitude | 33000 |
| Route | ENDEQ3J ENDEQ Q36 EPOXI L15 PIXUP/N0453F350 L15 FINMA DCT CHT DCT ITVIP DCT KONAN UL607 KOK DCT CIV DCT SUTAL DCT GTQ DCT BAMEV DCT BLM |
| Aircraft | A320/M-SDE3FGHIRWY/LB1 |
Departure
| Time | 2026-05-04 14:44 |
|---|---|
| Airport | Dublin Airport (EIDW) |
Arrival
| Time | 2026-05-04 16:30 |
|---|---|
| Airport | Zürich Airport (LSZH) |
| Time | Latitude | Longitude | Altitude | Speed | Heading |
|---|---|---|---|---|---|
| 2026-05-04 14:07 | 53.42407 | -6.24430 | 211 ft | 0 kts | 135° |
| 2026-05-04 14:32 | 53.42414 | -6.24441 | 211 ft | 4 kts | 137° |
| 2026-05-04 14:32 | 53.42434 | -6.24469 | 211 ft | 4 kts | 154° |
| 2026-05-04 14:33 | 53.42458 | -6.24479 | 211 ft | 2 kts | 189° |
| 2026-05-04 14:33 | 53.42479 | -6.24466 | 211 ft | 3 kts | 223° |
| 2026-05-04 14:33 | 53.42494 | -6.24442 | 211 ft | 4 kts | 218° |
| 2026-05-04 14:33 | 53.42515 | -6.24417 | 211 ft | 0 kts | 213° |
| 2026-05-04 14:37 | 53.42505 | -6.24430 | 211 ft | 6 kts | 216° |
| 2026-05-04 14:38 | 53.42452 | -6.24530 | 211 ft | 17 kts | 240° |
| 2026-05-04 14:38 | 53.42385 | -6.24729 | 214 ft | 21 kts | 228° |
| 2026-05-04 14:38 | 53.42281 | -6.24907 | 219 ft | 22 kts | 225° |
| 2026-05-04 14:38 | 53.42202 | -6.25119 | 211 ft | 22 kts | 265° |
| 2026-05-04 14:39 | 53.42216 | -6.25386 | 211 ft | 23 kts | 275° |
| 2026-05-04 14:39 | 53.42232 | -6.25659 | 211 ft | 24 kts | 275° |
| 2026-05-04 14:39 | 53.42246 | -6.25930 | 213 ft | 24 kts | 275° |
| 2026-05-04 14:40 | 53.42276 | -6.26484 | 214 ft | 23 kts | 276° |
| 2026-05-04 14:40 | 53.42291 | -6.26756 | 211 ft | 24 kts | 275° |
| 2026-05-04 14:40 | 53.42306 | -6.27027 | 219 ft | 22 kts | 275° |
| 2026-05-04 14:40 | 53.42320 | -6.27294 | 213 ft | 23 kts | 275° |
| 2026-05-04 14:41 | 53.42335 | -6.27564 | 211 ft | 23 kts | 275° |
| 2026-05-04 14:41 | 53.42351 | -6.27836 | 217 ft | 24 kts | 275° |
| 2026-05-04 14:41 | 53.42380 | -6.28376 | 216 ft | 24 kts | 275° |
| 2026-05-04 14:42 | 53.42409 | -6.28902 | 219 ft | 23 kts | 274° |
| 2026-05-04 14:42 | 53.42332 | -6.29080 | 210 ft | 20 kts | 178° |
| 2026-05-04 14:42 | 53.42240 | -6.28958 | 216 ft | 19 kts | 95° |
| 2026-05-04 14:43 | 53.42224 | -6.28693 | 211 ft | 40 kts | 94° |
| 2026-05-04 14:43 | 53.42177 | -6.27820 | 211 ft | 108 kts | 95° |
| 2026-05-04 14:43 | 53.42092 | -6.26252 | 213 ft | 160 kts | 95° |
| 2026-05-04 14:43 | 53.41970 | -6.24326 | 680 ft | 165 kts | 95° |
| 2026-05-04 14:44 | 53.41865 | -6.22412 | 1321 ft | 166 kts | 93° |
| 2026-05-04 14:44 | 53.41758 | -6.20358 | 1625 ft | 188 kts | 93° |
| 2026-05-04 14:44 | 53.41639 | -6.18057 | 1878 ft | 209 kts | 94° |
| 2026-05-04 14:44 | 53.41500 | -6.15476 | 2185 ft | 234 kts | 94° |
| 2026-05-04 14:45 | 53.41344 | -6.12633 | 2650 ft | 253 kts | 94° |
| 2026-05-04 14:45 | 53.41176 | -6.09650 | 3404 ft | 260 kts | 94° |
| 2026-05-04 14:45 | 53.41004 | -6.06612 | 4215 ft | 264 kts | 94° |
| 2026-05-04 14:45 | 53.40907 | -6.03522 | 5018 ft | 268 kts | 87° |
| 2026-05-04 14:46 | 53.41035 | -6.00384 | 5819 ft | 271 kts | 83° |
| 2026-05-04 14:46 | 53.41265 | -5.97225 | 6614 ft | 275 kts | 81° |
| 2026-05-04 14:46 | 53.41529 | -5.94030 | 7381 ft | 279 kts | 81° |
| 2026-05-04 14:46 | 53.41794 | -5.90782 | 8125 ft | 283 kts | 81° |
| 2026-05-04 14:47 | 53.42046 | -5.87484 | 8858 ft | 287 kts | 82° |
| 2026-05-04 14:47 | 53.42286 | -5.84137 | 9591 ft | 291 kts | 82° |
| 2026-05-04 14:47 | 53.42514 | -5.80790 | 10265 ft | 297 kts | 82° |
| 2026-05-04 14:47 | 53.42759 | -5.77210 | 10466 ft | 321 kts | 82° |
| 2026-05-04 14:48 | 53.43021 | -5.73391 | 10792 ft | 337 kts | 82° |
| 2026-05-04 14:48 | 53.43288 | -5.69451 | 11429 ft | 342 kts | 82° |
| 2026-05-04 14:48 | 53.43555 | -5.65464 | 12127 ft | 345 kts | 82° |
| 2026-05-04 14:48 | 53.43820 | -5.61452 | 12827 ft | 347 kts | 83° |
| 2026-05-04 14:49 | 53.44082 | -5.57415 | 13491 ft | 350 kts | 82° |
| 2026-05-04 14:49 | 53.44347 | -5.53340 | 14131 ft | 353 kts | 82° |
| 2026-05-04 14:49 | 53.44541 | -5.49212 | 14750 ft | 357 kts | 88° |
| 2026-05-04 14:49 | 53.44472 | -5.44946 | 14907 ft | 374 kts | 91° |
| 2026-05-04 14:50 | 53.44366 | -5.40522 | 15293 ft | 383 kts | 91° |
| 2026-05-04 14:50 | 53.44250 | -5.36043 | 15813 ft | 386 kts | 91° |
| 2026-05-04 14:50 | 53.44130 | -5.31519 | 16375 ft | 389 kts | 91° |
| 2026-05-04 14:50 | 53.44008 | -5.26962 | 16920 ft | 392 kts | 91° |
| 2026-05-04 14:51 | 53.43886 | -5.22380 | 17459 ft | 395 kts | 91° |
| 2026-05-04 14:51 | 53.43763 | -5.17760 | 17996 ft | 398 kts | 91° |
| 2026-05-04 14:51 | 53.43636 | -5.13111 | 18526 ft | 400 kts | 91° |
| 2026-05-04 14:51 | 53.43498 | -5.08497 | 19030 ft | 403 kts | 91° |
| 2026-05-04 14:52 | 53.43348 | -5.03799 | 19525 ft | 405 kts | 92° |
| 2026-05-04 14:52 | 53.43193 | -4.99071 | 20006 ft | 407 kts | 91° |
| 2026-05-04 14:52 | 53.43036 | -4.94319 | 20475 ft | 409 kts | 91° |
| 2026-05-04 14:52 | 53.42874 | -4.89542 | 20922 ft | 412 kts | 91° |
| 2026-05-04 14:53 | 53.42711 | -4.84734 | 21361 ft | 414 kts | 91° |
| 2026-05-04 14:53 | 53.42552 | -4.79912 | 21769 ft | 416 kts | 91° |
| 2026-05-04 14:53 | 53.42391 | -4.75048 | 22171 ft | 418 kts | 91° |
| 2026-05-04 14:53 | 53.42226 | -4.70171 | 22553 ft | 420 kts | 91° |
| 2026-05-04 14:54 | 53.42059 | -4.65271 | 22926 ft | 422 kts | 91° |
| 2026-05-04 14:54 | 53.41890 | -4.60345 | 23274 ft | 424 kts | 91° |
| 2026-05-04 14:54 | 53.41718 | -4.55390 | 23612 ft | 427 kts | 91° |
| 2026-05-04 14:54 | 53.41541 | -4.50411 | 23948 ft | 428 kts | 91° |
| 2026-05-04 14:55 | 53.41365 | -4.45419 | 24279 ft | 430 kts | 91° |
| 2026-05-04 14:55 | 53.41186 | -4.40400 | 24609 ft | 432 kts | 91° |
| 2026-05-04 14:55 | 53.41000 | -4.35370 | 24927 ft | 434 kts | 91° |
| 2026-05-04 14:55 | 53.40806 | -4.30311 | 25236 ft | 435 kts | 91° |
| 2026-05-04 14:56 | 53.40608 | -4.25238 | 25550 ft | 437 kts | 91° |
| 2026-05-04 14:56 | 53.40411 | -4.20151 | 25835 ft | 438 kts | 91° |
| 2026-05-04 14:56 | 53.40217 | -4.15046 | 26107 ft | 440 kts | 91° |
| 2026-05-04 14:56 | 53.40023 | -4.09922 | 26382 ft | 441 kts | 91° |
| 2026-05-04 14:57 | 53.39826 | -4.04790 | 26634 ft | 442 kts | 91° |
| 2026-05-04 14:57 | 53.39621 | -3.99644 | 26885 ft | 443 kts | 91° |
| 2026-05-04 14:57 | 53.39412 | -3.94475 | 27125 ft | 445 kts | 92° |
| 2026-05-04 14:57 | 53.39203 | -3.89296 | 27323 ft | 447 kts | 91° |
| 2026-05-04 14:58 | 53.38989 | -3.84094 | 27534 ft | 448 kts | 92° |
| 2026-05-04 14:58 | 53.38773 | -3.78948 | 27743 ft | 449 kts | 92° |
| 2026-05-04 14:58 | 53.38550 | -3.73729 | 27976 ft | 449 kts | 92° |
| 2026-05-04 14:58 | 53.38399 | -3.70192 | 28178 ft | 448 kts | 92° |
| 2026-05-04 14:59 | 53.37694 | -3.63379 | 28558 ft | 450 kts | 104° |
| 2026-05-04 14:59 | 53.36614 | -3.58440 | 28849 ft | 451 kts | 110° |
| 2026-05-04 14:59 | 53.34116 | -3.48825 | 29413 ft | 450 kts | 114° |
| 2026-05-04 15:00 | 53.32516 | -3.44313 | 29693 ft | 452 kts | 123° |
| 2026-05-04 15:00 | 53.30529 | -3.40230 | 29967 ft | 454 kts | 128° |
| 2026-05-04 15:00 | 53.29146 | -3.37615 | 30149 ft | 453 kts | 128° |
| 2026-05-04 15:01 | 53.24981 | -3.29744 | 30706 ft | 451 kts | 128° |
| 2026-05-04 15:01 | 53.22903 | -3.25818 | 30971 ft | 450 kts | 128° |
| 2026-05-04 15:01 | 53.20835 | -3.21918 | 31227 ft | 449 kts | 128° |
| 2026-05-04 15:01 | 53.18763 | -3.18015 | 31490 ft | 449 kts | 129° |
| 2026-05-04 15:02 | 53.16694 | -3.14120 | 31758 ft | 448 kts | 129° |
| 2026-05-04 15:02 | 53.14631 | -3.10240 | 32027 ft | 447 kts | 129° |
| 2026-05-04 15:02 | 53.12570 | -3.06367 | 32295 ft | 446 kts | 129° |
| 2026-05-04 15:02 | 53.10511 | -3.02507 | 32555 ft | 445 kts | 129° |
| 2026-05-04 15:03 | 53.08450 | -2.98656 | 32807 ft | 445 kts | 129° |
| 2026-05-04 15:03 | 53.06393 | -2.94826 | 33019 ft | 445 kts | 129° |
| 2026-05-04 15:03 | 53.02275 | -2.87171 | 33082 ft | 444 kts | 129° |
| 2026-05-04 15:04 | 52.98170 | -2.79528 | 33072 ft | 443 kts | 129° |
| 2026-05-04 15:04 | 52.94050 | -2.71908 | 33067 ft | 443 kts | 129° |
| 2026-05-04 15:05 | 52.89925 | -2.64315 | 33064 ft | 443 kts | 130° |
| 2026-05-04 15:05 | 52.85796 | -2.56735 | 33064 ft | 443 kts | 130° |
| 2026-05-04 15:06 | 52.81669 | -2.49167 | 33060 ft | 443 kts | 130° |
| 2026-05-04 15:07 | 52.75472 | -2.37828 | 33054 ft | 443 kts | 131° |
| 2026-05-04 15:07 | 52.71335 | -2.30311 | 33054 ft | 442 kts | 131° |
| 2026-05-04 15:08 | 52.67187 | -2.22804 | 33054 ft | 443 kts | 132° |
| 2026-05-04 15:08 | 52.63038 | -2.15301 | 33054 ft | 443 kts | 132° |
| 2026-05-04 15:09 | 52.58913 | -2.07863 | 33054 ft | 443 kts | 132° |
| 2026-05-04 15:09 | 52.54755 | -2.00380 | 33052 ft | 442 kts | 132° |
| 2026-05-04 15:10 | 52.48514 | -1.89207 | 33054 ft | 443 kts | 133° |
| 2026-05-04 15:11 | 52.42262 | -1.78055 | 33054 ft | 443 kts | 133° |
| 2026-05-04 15:11 | 52.38081 | -1.70648 | 33054 ft | 443 kts | 133° |
| 2026-05-04 15:12 | 52.33891 | -1.63261 | 33053 ft | 443 kts | 133° |
| 2026-05-04 15:12 | 52.29637 | -1.55975 | 33055 ft | 443 kts | 134° |
| 2026-05-04 15:13 | 52.25354 | -1.48733 | 33054 ft | 443 kts | 134° |
| 2026-05-04 15:13 | 52.21086 | -1.41491 | 33054 ft | 443 kts | 134° |
| 2026-05-04 15:14 | 52.16821 | -1.34256 | 33054 ft | 443 kts | 134° |
| 2026-05-04 15:14 | 52.12546 | -1.27033 | 33054 ft | 442 kts | 134° |
| 2026-05-04 15:15 | 52.08303 | -1.19878 | 33054 ft | 442 kts | 134° |
| 2026-05-04 15:15 | 52.04027 | -1.12701 | 33055 ft | 442 kts | 134° |
| 2026-05-04 15:16 | 51.97535 | -1.02050 | 33055 ft | 441 kts | 137° |
| 2026-05-04 15:17 | 51.90643 | -0.92211 | 33046 ft | 440 kts | 140° |
| 2026-05-04 15:17 | 51.83722 | -0.82456 | 33047 ft | 439 kts | 139° |
| 2026-05-04 15:18 | 51.79157 | -0.75886 | 33283 ft | 440 kts | 139° |
| 2026-05-04 15:18 | 51.76875 | -0.72600 | 33518 ft | 439 kts | 139° |
| 2026-05-04 15:19 | 51.72314 | -0.66059 | 33975 ft | 439 kts | 139° |
| 2026-05-04 15:19 | 51.70029 | -0.62802 | 34195 ft | 438 kts | 139° |
| 2026-05-04 15:19 | 51.65464 | -0.56295 | 34644 ft | 438 kts | 136° |
| 2026-05-04 15:20 | 51.63434 | -0.52640 | 34810 ft | 439 kts | 127° |
| 2026-05-04 15:20 | 51.61816 | -0.48474 | 34982 ft | 441 kts | 117° |
| 2026-05-04 15:20 | 51.59684 | -0.39135 | 35030 ft | 447 kts | 109° |
| 2026-05-04 15:21 | 51.57726 | -0.29631 | 35032 ft | 447 kts | 110° |
| 2026-05-04 15:22 | 51.54766 | -0.15409 | 35034 ft | 448 kts | 110° |
| 2026-05-04 15:22 | 51.51788 | -0.01268 | 35026 ft | 448 kts | 110° |
| 2026-05-04 15:23 | 51.49781 | 0.08203 | 35026 ft | 448 kts | 111° |
| 2026-05-04 15:23 | 51.47772 | 0.17674 | 35018 ft | 449 kts | 111° |
| 2026-05-04 15:24 | 51.43712 | 0.36646 | 35009 ft | 450 kts | 111° |
| 2026-05-04 15:25 | 51.41674 | 0.46122 | 35012 ft | 450 kts | 112° |
| 2026-05-04 15:26 | 51.38603 | 0.60346 | 35014 ft | 451 kts | 112° |
| 2026-05-04 15:26 | 51.35504 | 0.74578 | 35017 ft | 452 kts | 112° |
| 2026-05-04 15:27 | 51.32379 | 0.88733 | 35021 ft | 452 kts | 112° |
| 2026-05-04 15:28 | 51.29245 | 1.02948 | 35016 ft | 452 kts | 112° |
| 2026-05-04 15:29 | 51.26746 | 1.17543 | 35012 ft | 455 kts | 107° |
| 2026-05-04 15:30 | 51.21156 | 1.51770 | 35003 ft | 456 kts | 108° |
| 2026-05-04 15:31 | 51.18727 | 1.66426 | 35008 ft | 457 kts | 108° |
| 2026-05-04 15:32 | 51.14606 | 1.90894 | 35000 ft | 458 kts | 108° |
| 2026-05-04 15:34 | 51.12232 | 2.16051 | 34981 ft | 463 kts | 98° |
| 2026-05-04 15:34 | 51.11397 | 2.31382 | 34982 ft | 464 kts | 98° |
| 2026-05-04 15:35 | 51.10530 | 2.46722 | 34981 ft | 464 kts | 98° |
| 2026-05-04 15:36 | 51.09366 | 2.61970 | 34987 ft | 460 kts | 109° |
| 2026-05-04 15:36 | 51.06858 | 2.71167 | 34990 ft | 450 kts | 126° |
| 2026-05-04 15:37 | 51.03329 | 2.79360 | 34999 ft | 449 kts | 128° |
| 2026-05-04 15:37 | 50.99786 | 2.87532 | 34996 ft | 449 kts | 128° |
| 2026-05-04 15:38 | 50.96239 | 2.95691 | 34990 ft | 449 kts | 129° |
| 2026-05-04 15:38 | 50.92685 | 3.03817 | 34989 ft | 448 kts | 129° |
| 2026-05-04 15:39 | 50.89134 | 3.11924 | 34982 ft | 448 kts | 129° |
| 2026-05-04 15:40 | 50.83795 | 3.24064 | 34977 ft | 447 kts | 129° |
| 2026-05-04 15:40 | 50.80258 | 3.32083 | 34976 ft | 447 kts | 129° |
| 2026-05-04 15:41 | 50.76685 | 3.40145 | 34972 ft | 447 kts | 129° |
| 2026-05-04 15:41 | 50.73108 | 3.48181 | 34971 ft | 447 kts | 129° |
| 2026-05-04 15:42 | 50.69533 | 3.56189 | 34971 ft | 446 kts | 129° |
| 2026-05-04 15:42 | 50.65960 | 3.64198 | 34971 ft | 446 kts | 129° |
| 2026-05-04 15:43 | 50.62380 | 3.72184 | 34973 ft | 446 kts | 129° |
| 2026-05-04 15:43 | 50.58800 | 3.80146 | 34974 ft | 445 kts | 130° |
| 2026-05-04 15:44 | 50.55257 | 3.88147 | 34976 ft | 446 kts | 128° |
| 2026-05-04 15:44 | 50.51889 | 3.96358 | 34977 ft | 447 kts | 127° |
| 2026-05-04 15:45 | 50.48578 | 4.04554 | 34976 ft | 447 kts | 127° |
| 2026-05-04 15:45 | 50.45201 | 4.12749 | 34975 ft | 446 kts | 128° |
| 2026-05-04 15:46 | 50.41792 | 4.20888 | 34974 ft | 446 kts | 128° |
| 2026-05-04 15:46 | 50.38373 | 4.29013 | 34973 ft | 446 kts | 128° |
| 2026-05-04 15:47 | 50.34960 | 4.37149 | 34975 ft | 446 kts | 128° |
| 2026-05-04 15:47 | 50.31549 | 4.45270 | 34976 ft | 447 kts | 128° |
| 2026-05-04 15:48 | 50.28132 | 4.53375 | 34973 ft | 446 kts | 128° |
| 2026-05-04 15:48 | 50.23560 | 4.64136 | 34974 ft | 446 kts | 128° |
| 2026-05-04 15:49 | 50.20117 | 4.72210 | 34974 ft | 447 kts | 129° |
| 2026-05-04 15:49 | 50.16668 | 4.80278 | 34973 ft | 447 kts | 129° |
| 2026-05-04 15:50 | 50.13216 | 4.88349 | 34973 ft | 448 kts | 129° |
| 2026-05-04 15:50 | 50.09757 | 4.96414 | 34971 ft | 448 kts | 129° |
| 2026-05-04 15:51 | 50.06281 | 5.04472 | 34972 ft | 448 kts | 129° |
| 2026-05-04 15:51 | 50.02804 | 5.12517 | 34974 ft | 449 kts | 129° |
| 2026-05-04 15:52 | 49.99313 | 5.20572 | 34976 ft | 449 kts | 129° |
| 2026-05-04 15:52 | 49.95843 | 5.28554 | 34988 ft | 449 kts | 129° |
| 2026-05-04 15:53 | 49.92347 | 5.36575 | 34996 ft | 448 kts | 130° |
| 2026-05-04 15:53 | 49.88844 | 5.44573 | 34985 ft | 448 kts | 130° |
| 2026-05-04 15:54 | 49.85335 | 5.52565 | 34984 ft | 449 kts | 130° |
| 2026-05-04 15:54 | 49.81815 | 5.60570 | 34985 ft | 449 kts | 130° |
| 2026-05-04 15:55 | 49.78287 | 5.68570 | 34986 ft | 450 kts | 130° |
| 2026-05-04 15:55 | 49.74754 | 5.76561 | 34988 ft | 450 kts | 130° |
| 2026-05-04 15:56 | 49.71206 | 5.84551 | 34990 ft | 451 kts | 130° |
| 2026-05-04 15:56 | 49.67654 | 5.92524 | 34997 ft | 451 kts | 130° |
| 2026-05-04 15:57 | 49.64093 | 6.00491 | 34994 ft | 451 kts | 130° |
| 2026-05-04 15:57 | 49.60533 | 6.08452 | 34996 ft | 451 kts | 130° |
| 2026-05-04 15:58 | 49.56989 | 6.16341 | 35001 ft | 451 kts | 131° |
| 2026-05-04 15:58 | 49.53404 | 6.24267 | 35004 ft | 451 kts | 131° |
| 2026-05-04 15:59 | 49.49818 | 6.32188 | 34997 ft | 451 kts | 131° |
| 2026-05-04 15:59 | 49.45578 | 6.39031 | 34988 ft | 436 kts | 149° |
| 2026-05-04 16:00 | 49.40359 | 6.43466 | 34987 ft | 426 kts | 161° |
| 2026-05-04 16:00 | 49.34926 | 6.47138 | 34986 ft | 427 kts | 161° |
| 2026-05-04 16:01 | 49.29493 | 6.50836 | 34991 ft | 427 kts | 161° |
| 2026-05-04 16:01 | 49.24060 | 6.54526 | 34991 ft | 427 kts | 161° |
| 2026-05-04 16:02 | 49.18623 | 6.58199 | 34997 ft | 427 kts | 161° |
| 2026-05-04 16:03 | 49.10470 | 6.63682 | 34988 ft | 427 kts | 161° |
| 2026-05-04 16:03 | 49.05065 | 6.67313 | 34996 ft | 427 kts | 161° |
| 2026-05-04 16:04 | 48.99622 | 6.70956 | 35001 ft | 427 kts | 161° |
| 2026-05-04 16:04 | 48.91386 | 6.76066 | 34997 ft | 425 kts | 164° |
| 2026-05-04 16:05 | 48.85853 | 6.79254 | 34998 ft | 425 kts | 164° |
| 2026-05-04 16:06 | 48.77558 | 6.84093 | 34998 ft | 426 kts | 163° |
| 2026-05-04 16:07 | 48.66520 | 6.90613 | 35001 ft | 426 kts | 163° |
| 2026-05-04 16:08 | 48.55506 | 6.97073 | 35005 ft | 426 kts | 163° |
| 2026-05-04 16:09 | 48.41676 | 7.05129 | 35008 ft | 426 kts | 163° |
| 2026-05-04 16:10 | 48.30614 | 7.11541 | 35004 ft | 426 kts | 163° |
| 2026-05-04 16:11 | 48.19538 | 7.17924 | 34996 ft | 427 kts | 163° |
| 2026-05-04 16:12 | 48.02820 | 7.27515 | 32499 ft | 438 kts | 163° |
| 2026-05-04 16:13 | 47.97072 | 7.30789 | 30369 ft | 444 kts | 162° |
| 2026-05-04 16:13 | 47.91265 | 7.34101 | 28186 ft | 448 kts | 162° |
| 2026-05-04 16:14 | 47.85405 | 7.37431 | 25837 ft | 454 kts | 162° |
| 2026-05-04 16:14 | 47.79563 | 7.40750 | 24201 ft | 444 kts | 162° |
| 2026-05-04 16:15 | 47.71018 | 7.45596 | 21876 ft | 433 kts | 161° |
| 2026-05-04 16:16 | 47.65747 | 7.49753 | 20438 ft | 431 kts | 143° |
| 2026-05-04 16:16 | 47.60763 | 7.60671 | 18159 ft | 437 kts | 111° |
| 2026-05-04 16:17 | 47.58795 | 7.69136 | 16593 ft | 434 kts | 112° |
| 2026-05-04 16:18 | 47.55869 | 7.81549 | 14354 ft | 412 kts | 112° |
| 2026-05-04 16:18 | 47.54935 | 7.85515 | 13645 ft | 404 kts | 111° |
| 2026-05-04 16:19 | 47.52356 | 7.96447 | 12800 ft | 336 kts | 112° |
| 2026-05-04 16:19 | 47.50913 | 8.02519 | 12458 ft | 294 kts | 112° |
| 2026-05-04 16:20 | 47.48978 | 8.10598 | 11663 ft | 283 kts | 112° |
| 2026-05-04 16:20 | 47.47694 | 8.16062 | 11162 ft | 281 kts | 107° |
| 2026-05-04 16:21 | 47.48696 | 8.24390 | 10758 ft | 290 kts | 51° |
| 2026-05-04 16:22 | 47.52318 | 8.26538 | 10205 ft | 294 kts | 350° |
| 2026-05-04 16:22 | 47.57289 | 8.21699 | 9098 ft | 284 kts | 314° |
| 2026-05-04 16:23 | 47.61975 | 8.17008 | 8025 ft | 274 kts | 3° |
| 2026-05-04 16:24 | 47.67329 | 8.23848 | 6597 ft | 247 kts | 76° |
| 2026-05-04 16:25 | 47.66547 | 8.28417 | 5995 ft | 236 kts | 135° |
| 2026-05-04 16:26 | 47.61708 | 8.35087 | 4843 ft | 235 kts | 137° |
| 2026-05-04 16:26 | 47.58191 | 8.39927 | 4049 ft | 223 kts | 137° |
| 2026-05-04 16:27 | 47.56005 | 8.42926 | 3523 ft | 204 kts | 137° |
| 2026-05-04 16:28 | 47.53087 | 8.46930 | 2725 ft | 173 kts | 139° |
| 2026-05-04 16:28 | 47.50626 | 8.50299 | 2101 ft | 155 kts | 139° |
| 2026-05-04 16:29 | 47.47559 | 8.54489 | 1397 ft | 126 kts | 137° |
| 2026-05-04 16:30 | 47.46635 | 8.55751 | 1400 ft | 22 kts | 136° |
| 2026-05-04 16:31 | 47.46361 | 8.55963 | 1407 ft | 23 kts | 167° |
| 2026-05-04 16:31 | 47.45913 | 8.55943 | 1407 ft | 21 kts | 200° |
| 2026-05-04 16:32 | 47.45505 | 8.55818 | 1407 ft | 19 kts | 201° |
| 2026-05-04 16:33 | 47.45425 | 8.55803 | 1407 ft | 0 kts | 187° |